createdAt,value
2018-04-24T00:00:58.016Z,2.03
2018-04-24T00:03:25.527Z,1.63
2018-04-24T00:05:53.008Z,2.17
2018-04-24T00:08:20.466Z,2.10
2018-04-24T00:10:47.960Z,2.20
2018-04-24T00:13:16.324Z,1.77
2018-04-24T00:15:44.551Z,2.00
2018-04-24T00:18:12.118Z,2.10
2018-04-24T00:20:39.527Z,1.97
2018-04-24T00:23:07.884Z,2.30
2018-04-24T00:25:36.199Z,2.03
2018-04-24T00:28:03.690Z,2.60
2018-04-24T00:30:31.160Z,2.10
2018-04-24T00:32:58.631Z,3.07
2018-04-24T00:35:26.232Z,2.57
2018-04-24T00:37:53.757Z,2.30
2018-04-24T00:40:22.744Z,2.33
2018-04-24T00:42:50.219Z,2.97
2018-04-24T00:45:18.712Z,2.73
2018-04-24T00:47:46.967Z,2.70
2018-04-24T00:50:15.220Z,2.27
2018-04-24T00:52:42.688Z,2.60
2018-04-24T00:55:10.155Z,2.40
2018-04-24T00:57:38.418Z,2.20
2018-04-24T01:00:06.645Z,2.30
2018-04-24T01:02:34.135Z,2.70
2018-04-24T01:05:01.605Z,2.23
2018-04-24T01:07:29.077Z,3.10
2018-04-24T01:09:56.546Z,1.80
2018-04-24T01:12:24.839Z,2.33
2018-04-24T01:14:53.065Z,2.50
2018-04-24T01:17:20.919Z,2.27
2018-04-24T01:19:48.399Z,2.00
2018-04-24T01:22:16.635Z,2.17
2018-04-24T01:24:44.091Z,2.60
2018-04-24T01:27:11.569Z,2.20
2018-04-24T01:29:39.068Z,2.47
2018-04-24T01:32:07.287Z,2.10
2018-04-24T01:34:34.789Z,2.27
2018-04-24T01:37:02.260Z,2.50
2018-04-24T01:39:30.534Z,2.83
2018-04-24T01:41:58.760Z,2.30
2018-04-24T01:44:26.360Z,3.20
2018-04-24T01:46:54.592Z,2.27
2018-04-24T01:49:22.147Z,2.93
2018-04-24T01:51:49.623Z,3.67
2018-04-24T01:54:17.125Z,2.40
2018-04-24T01:56:45.352Z,2.73
2018-04-24T01:59:12.836Z,3.00
2018-04-24T02:01:41.074Z,2.70
2018-04-24T02:04:08.539Z,3.07
2018-04-24T02:06:36.036Z,3.00
2018-04-24T02:09:04.268Z,2.83
2018-04-24T02:11:31.743Z,2.37
2018-04-24T02:13:59.320Z,2.80
2018-04-24T02:16:27.571Z,3.20
2018-04-24T02:18:55.049Z,2.90
2018-04-24T02:21:23.693Z,3.97
2018-04-24T02:23:51.151Z,2.87
2018-04-24T02:26:18.660Z,2.50
2018-04-24T02:28:46.896Z,2.60
2018-04-24T02:31:14.373Z,2.97
2018-04-24T02:33:42.613Z,2.87
2018-04-24T02:36:10.085Z,2.90
2018-04-24T02:38:37.556Z,2.50
2018-04-24T02:41:05.028Z,2.80
2018-04-24T02:43:32.490Z,3.47
2018-04-24T02:46:00.771Z,3.20
2018-04-24T02:48:29.008Z,3.23
2018-04-24T02:50:56.491Z,3.30
2018-04-24T02:53:24.847Z,3.37
2018-04-24T02:55:52.330Z,3.23
2018-04-24T02:58:19.814Z,3.80
2018-04-24T03:00:47.317Z,3.37
2018-04-24T03:03:14.796Z,4.03
2018-04-24T03:05:42.303Z,3.90
2018-04-24T03:08:09.768Z,3.17
2018-04-24T03:10:37.244Z,4.10
2018-04-24T03:13:04.729Z,3.37
2018-04-24T03:15:32.184Z,3.57
2018-04-24T03:18:00.425Z,4.50
2018-04-24T03:20:28.143Z,3.90
2018-04-24T03:22:55.627Z,4.10
2018-04-24T03:25:23.091Z,3.60
2018-04-24T03:27:50.603Z,3.93
2018-04-24T03:30:18.836Z,4.10
2018-04-24T03:32:46.348Z,4.37
2018-04-24T03:35:14.579Z,3.67
2018-04-24T03:37:42.057Z,4.70
2018-04-24T03:40:09.548Z,4.07
2018-04-24T03:42:37.037Z,3.90
2018-04-24T03:45:04.568Z,4.07
2018-04-24T03:47:32.040Z,5.30
2018-04-24T03:49:59.508Z,3.83
2018-04-24T03:52:27.429Z,4.90
2018-04-24T03:54:55.660Z,4.40
2018-04-24T03:57:23.153Z,4.23
2018-04-24T03:59:51.399Z,4.63
2018-04-24T04:02:18.872Z,4.57
2018-04-24T04:04:46.354Z,4.20
2018-04-24T04:07:14.577Z,4.27
2018-04-24T04:09:42.066Z,4.57
2018-04-24T04:12:10.292Z,4.80
2018-04-24T04:14:37.818Z,4.50
2018-04-24T04:17:18.023Z,4.30
2018-04-24T04:19:57.396Z,4.50
2018-04-24T04:22:37.608Z,5.00
2018-04-24T04:25:05.262Z,4.57
2018-04-24T04:27:32.882Z,4.30
2018-04-24T04:30:00.356Z,4.23
2018-04-24T04:32:27.845Z,4.40
2018-04-24T04:34:55.342Z,3.90
2018-04-24T04:37:22.823Z,4.20
2018-04-24T04:39:51.057Z,3.73
2018-04-24T04:42:18.529Z,3.83
2018-04-24T04:44:46.919Z,4.27
2018-04-24T04:47:14.432Z,4.43
2018-04-24T04:49:41.926Z,3.30
2018-04-24T04:52:09.401Z,3.57
2018-04-24T04:54:36.990Z,3.13
2018-04-24T04:57:04.493Z,3.90
2018-04-24T04:59:32.295Z,3.70
2018-04-24T05:01:59.925Z,3.80
2018-04-24T05:04:27.384Z,3.90
2018-04-24T05:06:54.867Z,3.30
2018-04-24T05:09:23.088Z,3.50
2018-04-24T05:11:50.618Z,3.60
2018-04-24T05:14:18.092Z,3.67
2018-04-24T05:16:45.568Z,3.27
2018-04-24T05:19:13.039Z,3.40
2018-04-24T05:21:41.299Z,3.47
2018-04-24T05:24:08.795Z,2.70
2018-04-24T05:26:37.101Z,3.77
2018-04-24T05:29:04.505Z,3.53
2018-04-24T05:31:31.983Z,3.77
2018-04-24T05:34:00.224Z,4.00
2018-04-24T05:36:27.685Z,3.70
2018-04-24T05:38:55.156Z,3.07
2018-04-24T05:41:22.607Z,3.80
2018-04-24T05:43:50.120Z,3.60
2018-04-24T05:46:17.673Z,3.80
2018-04-24T05:48:45.341Z,3.50
2018-04-24T05:51:12.826Z,3.27
2018-04-24T05:53:40.328Z,3.40
2018-04-24T05:56:08.556Z,3.27
2018-04-24T05:58:36.416Z,3.50
2018-04-24T06:01:03.884Z,3.77
2018-04-24T06:03:31.372Z,3.33
2018-04-24T06:05:59.616Z,3.73
2018-04-24T06:08:27.292Z,3.23
2018-04-24T06:10:54.732Z,3.20
2018-04-24T06:13:22.195Z,3.20
2018-04-24T06:15:49.687Z,4.27
2018-04-24T06:18:18.167Z,2.83
2018-04-24T06:20:46.406Z,3.70
2018-04-24T06:23:13.895Z,3.30
2018-04-24T06:25:42.151Z,2.97
2018-04-24T06:28:09.628Z,3.20
2018-04-24T06:30:38.144Z,3.70
2018-04-24T06:33:05.657Z,3.33
2018-04-24T06:35:33.127Z,2.50
2018-04-24T06:38:01.375Z,3.53
2018-04-24T06:40:28.863Z,3.17
2018-04-24T06:42:57.147Z,4.00
2018-04-24T06:45:25.398Z,2.90
2018-04-24T06:47:52.949Z,3.70
2018-04-24T06:50:20.376Z,3.70
2018-04-24T06:52:47.863Z,3.47
2018-04-24T06:55:15.328Z,3.83
2018-04-24T06:57:42.835Z,4.20
2018-04-24T07:00:10.304Z,3.67
2018-04-24T07:02:38.085Z,3.90
2018-04-24T07:05:05.628Z,4.20
2018-04-24T07:07:33.105Z,3.20
2018-04-24T07:10:00.611Z,4.00
2018-04-24T07:12:28.119Z,4.10
2018-04-24T07:14:55.612Z,3.30
2018-04-24T07:17:23.872Z,3.93
2018-04-24T07:19:51.357Z,3.60
2018-04-24T07:22:19.717Z,3.60
2018-04-24T07:24:47.157Z,3.60
2018-04-24T07:27:15.440Z,3.77
2018-04-24T07:29:43.140Z,4.33
2018-04-24T07:32:10.623Z,3.70
2018-04-24T07:34:38.114Z,3.97
2018-04-24T07:37:07.091Z,3.37
2018-04-24T07:39:34.779Z,4.60
2018-04-24T07:42:02.253Z,4.40
2018-04-24T07:44:30.504Z,4.13
2018-04-24T07:46:57.971Z,4.10
2018-04-24T07:49:26.239Z,4.60
2018-04-24T07:51:53.708Z,4.30
2018-04-24T07:54:21.967Z,4.43
2018-04-24T07:56:49.529Z,3.77
2018-04-24T07:59:17.872Z,4.07
2018-04-24T08:01:45.257Z,4.23
2018-04-24T08:04:12.730Z,3.70
2018-04-24T08:06:41.609Z,3.83
2018-04-24T08:09:09.860Z,4.10
2018-04-24T08:11:37.346Z,4.23
2018-04-24T08:14:04.821Z,3.90
2018-04-24T08:16:33.187Z,3.80
2018-04-24T08:19:00.631Z,4.13
2018-04-24T08:21:30.755Z,4.20
2018-04-24T08:23:58.225Z,3.73
2018-04-24T08:26:26.479Z,4.07
2018-04-24T08:28:53.958Z,4.60
2018-04-24T08:31:22.213Z,3.77
2018-04-24T08:33:50.503Z,4.63
2018-04-24T08:36:18.780Z,4.70
2018-04-24T08:38:47.047Z,4.67
2018-04-24T08:41:14.535Z,4.27
2018-04-24T08:43:42.237Z,4.10
2018-04-24T08:46:09.719Z,4.60
2018-04-24T08:48:37.987Z,5.17
2018-04-24T08:51:05.459Z,5.13
2018-04-24T08:53:33.727Z,6.40
2018-04-24T08:56:02.724Z,5.50
2018-04-24T08:58:30.216Z,6.30
2018-04-24T09:00:57.882Z,5.53
2018-04-24T09:03:25.400Z,5.83
2018-04-24T09:05:53.675Z,5.93
2018-04-24T09:08:21.919Z,6.47
2018-04-24T09:10:49.413Z,5.97
2018-04-24T09:13:17.680Z,6.10
2018-04-24T09:15:45.561Z,6.77
2018-04-24T09:18:13.083Z,6.70
2018-04-24T09:20:40.572Z,6.50
2018-04-24T09:23:08.060Z,7.60
2018-04-24T09:25:35.554Z,6.33
2018-04-24T09:28:03.088Z,7.43
2018-04-24T09:30:30.572Z,6.90
2018-04-24T09:32:58.053Z,6.70
2018-04-24T09:35:27.472Z,7.83
2018-04-24T09:37:55.725Z,7.83
2018-04-24T09:40:23.252Z,7.03
2018-04-24T09:42:50.715Z,7.00
2018-04-24T09:45:18.224Z,6.80
2018-04-24T09:47:46.451Z,6.50
2018-04-24T09:50:13.961Z,6.60
2018-04-24T09:52:42.205Z,7.50
2018-04-24T09:55:09.780Z,6.53
2018-04-24T09:57:38.021Z,6.60
2018-04-24T10:00:06.299Z,7.70
2018-04-24T10:02:33.899Z,6.60
2018-04-24T10:05:02.139Z,6.33
2018-04-24T10:07:29.669Z,7.83
2018-04-24T10:09:57.285Z,6.97
2018-04-24T10:12:25.538Z,7.17
2018-04-24T10:14:53.021Z,7.10
2018-04-24T10:17:20.529Z,7.00
2018-04-24T10:19:48.244Z,7.10
2018-04-24T10:22:15.669Z,7.93
2018-04-24T10:24:44.655Z,8.20
2018-04-24T10:27:12.143Z,7.63
2018-04-24T10:29:40.388Z,7.37
2018-04-24T10:32:07.857Z,7.03
2018-04-24T10:34:35.340Z,7.63
2018-04-24T10:37:03.575Z,7.47
2018-04-24T10:39:31.061Z,7.20
2018-04-24T10:41:58.669Z,7.10
2018-04-24T10:44:26.218Z,6.43
2018-04-24T10:46:54.608Z,6.80
2018-04-24T10:49:27.283Z,7.73
2018-04-24T10:51:54.740Z,7.20
2018-04-24T10:54:22.497Z,7.00
2018-04-24T10:56:50.632Z,7.97
2018-04-24T10:59:18.177Z,6.90
2018-04-24T11:01:45.625Z,6.70
2018-04-24T11:04:13.117Z,8.37
2018-04-24T11:06:41.389Z,7.30
2018-04-24T11:09:09.695Z,7.30
2018-04-24T11:11:37.159Z,8.13
2018-04-24T11:14:04.665Z,7.63
2018-04-24T11:16:33.663Z,7.27
2018-04-24T11:19:01.177Z,8.27
2018-04-24T11:21:29.035Z,8.03
2018-04-24T11:23:57.254Z,7.13
2018-04-24T11:26:24.724Z,7.10
2018-04-24T11:28:53.479Z,7.77
2018-04-24T11:31:20.960Z,7.60
2018-04-24T11:33:49.207Z,7.23
2018-04-24T11:36:16.697Z,7.10
2018-04-24T11:38:44.208Z,7.60
2018-04-24T11:41:11.780Z,7.00
2018-04-24T11:43:39.271Z,7.70
2018-04-24T11:46:06.749Z,7.80
2018-04-24T11:48:35.105Z,7.60
2018-04-24T11:51:02.645Z,7.40
2018-04-24T11:53:30.116Z,7.60
2018-04-24T11:55:57.593Z,7.57
2018-04-24T11:58:25.851Z,7.60
2018-04-24T12:00:54.397Z,8.00
2018-04-24T12:03:21.902Z,8.50
2018-04-24T12:05:50.870Z,7.70
2018-04-24T12:08:18.404Z,8.60
2018-04-24T12:10:45.880Z,8.07
2018-04-24T12:13:13.369Z,7.90
2018-04-24T12:15:41.692Z,8.90
2018-04-24T12:18:09.123Z,8.23
2018-04-24T12:20:36.636Z,8.47
2018-04-24T12:23:04.116Z,8.07
2018-04-24T12:25:31.619Z,8.67
2018-04-24T12:27:59.096Z,9.10
2018-04-24T12:30:26.615Z,9.37
2018-04-24T12:32:54.170Z,9.67
2018-04-24T12:35:22.447Z,9.07
2018-04-24T12:37:49.945Z,9.30
2018-04-24T12:40:17.424Z,9.70
2018-04-24T12:42:44.953Z,9.37
2018-04-24T12:45:12.475Z,10.17
2018-04-24T12:47:39.995Z,10.83
2018-04-24T12:50:07.475Z,10.47
2018-04-24T12:52:35.750Z,9.63
2018-04-24T12:55:03.979Z,9.67
2018-04-24T12:57:31.508Z,10.50
2018-04-24T12:59:58.990Z,9.93
2018-04-24T13:02:26.507Z,10.40
2018-04-24T13:04:54.762Z,9.90
2018-04-24T13:07:22.221Z,9.80
2018-04-24T13:09:49.785Z,10.70
2018-04-24T13:12:17.251Z,10.00
2018-04-24T13:14:45.516Z,10.17
2018-04-24T13:17:12.995Z,10.53
2018-04-24T13:19:41.247Z,10.10
2018-04-24T13:22:08.743Z,10.70
2018-04-24T13:24:36.256Z,11.20
2018-04-24T13:27:05.248Z,11.60
2018-04-24T13:29:33.644Z,10.53
2018-04-24T13:32:01.910Z,9.17
2018-04-24T13:34:29.389Z,10.20
2018-04-24T13:36:58.130Z,9.60
2018-04-24T13:39:25.639Z,10.63
2018-04-24T13:41:53.891Z,10.40
2018-04-24T13:44:22.147Z,10.40
2018-04-24T13:46:49.621Z,9.37
2018-04-24T13:49:17.856Z,10.70
2018-04-24T13:51:45.352Z,10.00
2018-04-24T13:54:13.600Z,9.27
2018-04-24T13:56:41.073Z,9.83
2018-04-24T13:59:08.540Z,10.40
2018-04-24T14:01:36.050Z,10.47
2018-04-24T14:04:03.520Z,10.63
2018-04-24T14:06:31.037Z,10.07
2018-04-24T14:08:59.320Z,10.00
2018-04-24T14:11:26.802Z,10.13
2018-04-24T14:13:54.270Z,9.53
2018-04-24T14:16:21.780Z,10.27
2018-04-24T14:18:50.035Z,10.33
2018-04-24T14:21:17.797Z,9.50
2018-04-24T14:23:46.797Z,10.13
2018-04-24T14:26:14.268Z,9.83
2018-04-24T14:28:42.526Z,10.70
2018-04-24T14:31:10.006Z,11.63
2018-04-24T14:33:38.267Z,9.73
2018-04-24T14:36:06.661Z,11.00
2018-04-24T14:38:34.922Z,10.43
2018-04-24T14:41:03.181Z,10.67
2018-04-24T14:43:30.862Z,10.20
2018-04-24T14:45:59.459Z,10.47
2018-04-24T14:48:27.715Z,10.70
2018-04-24T14:50:55.979Z,10.63
2018-04-24T14:53:24.989Z,10.60
2018-04-24T14:55:52.466Z,10.80
2018-04-24T14:58:20.006Z,11.40
2018-04-24T15:00:48.248Z,11.73
2018-04-24T15:03:15.814Z,11.47
2018-04-24T15:05:43.309Z,11.13
2018-04-24T15:08:11.583Z,11.33
2018-04-24T15:10:39.831Z,9.60
2018-04-24T15:13:07.316Z,11.90
2018-04-24T15:15:35.590Z,10.13
2018-04-24T15:18:03.810Z,10.90
2018-04-24T15:20:31.332Z,11.07
2018-04-24T15:22:59.560Z,9.27
2018-04-24T15:25:27.047Z,10.20
2018-04-24T15:27:55.363Z,10.50
2018-04-24T15:30:22.839Z,11.53
2018-04-24T15:32:50.334Z,9.97
2018-04-24T15:35:18.604Z,10.10
2018-04-24T15:37:46.095Z,9.80
2018-04-24T15:40:13.580Z,10.10
2018-04-24T15:42:41.128Z,10.00
2018-04-24T15:45:08.873Z,9.53
2018-04-24T15:47:37.109Z,10.00
2018-04-24T15:50:05.556Z,9.83
2018-04-24T15:52:33.143Z,9.53
2018-04-24T15:55:00.954Z,9.60
2018-04-24T15:57:28.668Z,9.90
2018-04-24T15:59:57.700Z,9.33
2018-04-24T16:02:25.965Z,10.10
2018-04-24T16:04:54.208Z,8.83
2018-04-24T16:07:21.684Z,8.63
2018-04-24T16:09:49.959Z,8.90
2018-04-24T16:12:17.428Z,9.47
2018-04-24T16:14:45.676Z,9.00
2018-04-24T16:17:13.940Z,9.37
2018-04-24T16:19:41.518Z,9.13
2018-04-24T16:22:09.007Z,8.80
2018-04-24T16:24:36.504Z,8.10
2018-04-24T16:27:04.484Z,8.83
2018-04-24T16:29:31.993Z,8.87
2018-04-24T16:31:59.475Z,8.77
2018-04-24T16:34:26.953Z,8.80
2018-04-24T16:36:54.419Z,9.40
2018-04-24T16:39:21.973Z,8.87
2018-04-24T16:41:49.380Z,9.30
2018-04-24T16:44:16.867Z,9.20
2018-04-24T16:46:44.608Z,9.23
2018-04-24T16:49:12.111Z,9.17
2018-04-24T16:51:39.614Z,9.40
2018-04-24T16:54:07.874Z,9.50
2018-04-24T16:56:36.164Z,9.13
2018-04-24T16:59:04.698Z,8.57
2018-04-24T17:01:32.188Z,9.20
2018-04-24T17:04:00.430Z,7.87
2018-04-24T17:06:27.907Z,9.07
2018-04-24T17:08:55.396Z,9.40
2018-04-24T17:11:22.876Z,8.97
2018-04-24T17:13:50.363Z,9.07
2018-04-24T17:16:17.831Z,9.80
2018-04-24T17:18:45.406Z,9.33
2018-04-24T17:21:12.856Z,10.47
2018-04-24T17:23:40.347Z,8.87
2018-04-24T17:26:07.824Z,9.50
2018-04-24T17:28:35.378Z,9.83
2018-04-24T17:31:02.856Z,9.87
2018-04-24T17:33:30.584Z,9.80
2018-04-24T17:35:58.100Z,9.80
2018-04-24T17:38:25.580Z,9.67
2018-04-24T17:40:53.849Z,9.20
2018-04-24T17:43:21.453Z,9.80
2018-04-24T17:45:48.916Z,9.27
2018-04-24T17:48:16.415Z,9.60
2018-04-24T17:50:43.937Z,10.30
2018-04-24T17:53:11.430Z,8.70
2018-04-24T17:55:39.716Z,9.73
2018-04-24T17:58:08.354Z,9.80
2018-04-24T18:00:35.870Z,9.13
2018-04-24T18:03:04.139Z,9.60
2018-04-24T18:05:32.472Z,8.50
2018-04-24T18:07:59.947Z,10.10
2018-04-24T18:10:27.493Z,9.80
2018-04-24T18:12:55.004Z,8.60
2018-04-24T18:15:23.258Z,9.63
2018-04-24T18:17:50.732Z,9.67
2018-04-24T18:20:18.987Z,8.30
2018-04-24T18:22:46.503Z,9.20
2018-04-24T18:25:14.107Z,9.07
2018-04-24T18:27:41.671Z,9.90
2018-04-24T18:30:09.327Z,9.60
2018-04-24T18:32:36.953Z,9.50
2018-04-24T18:35:04.490Z,9.30
2018-04-24T18:37:31.967Z,8.80
2018-04-24T18:39:59.478Z,8.50
2018-04-24T18:42:27.715Z,8.93
2018-04-24T18:44:55.240Z,9.87
2018-04-24T18:47:22.711Z,8.30
2018-04-24T18:49:50.172Z,9.63
2018-04-24T18:52:17.760Z,9.43
2018-04-24T18:54:45.280Z,8.60
2018-04-24T18:57:12.854Z,8.80
2018-04-24T18:59:41.929Z,8.67
2018-04-24T19:02:09.933Z,9.30
2018-04-24T19:04:37.433Z,8.50
2018-04-24T19:07:05.717Z,8.10
2018-04-24T19:09:33.416Z,8.10
2018-04-24T19:12:00.882Z,7.90
2018-04-24T19:14:28.415Z,8.50
2018-04-24T19:16:55.945Z,9.07
2018-04-24T19:19:26.209Z,8.00
2018-04-24T19:21:53.719Z,8.60
2018-04-24T19:24:27.899Z,7.97
2018-04-24T19:26:56.167Z,8.03
2018-04-24T19:29:23.769Z,7.60
2018-04-24T19:31:57.763Z,8.37
2018-04-24T19:34:26.038Z,8.10
2018-04-24T19:36:54.343Z,8.03
2018-04-24T19:39:27.450Z,7.83
2018-04-24T19:41:54.944Z,8.33
2018-04-24T19:44:22.445Z,8.43
2018-04-24T19:46:49.934Z,8.03
2018-04-24T19:49:23.814Z,8.73
2018-04-24T19:51:51.290Z,8.40
2018-04-24T19:54:18.787Z,8.10
2018-04-24T19:56:46.269Z,8.63
2018-04-24T19:59:14.516Z,8.00
2018-04-24T20:01:41.990Z,9.00
2018-04-24T20:04:09.572Z,7.93
2018-04-24T20:06:37.851Z,7.93
2018-04-24T20:09:06.250Z,7.90
2018-04-24T20:11:33.736Z,8.80
2018-04-24T20:14:01.204Z,8.33
2018-04-24T20:16:28.720Z,8.53
2018-04-24T20:18:56.198Z,8.70
2018-04-24T20:21:23.700Z,10.37
2018-04-24T20:23:51.973Z,10.07
2018-04-24T20:26:19.513Z,8.83
2018-04-24T20:28:46.988Z,9.60
2018-04-24T20:31:15.236Z,9.50
2018-04-24T20:33:42.707Z,9.60
2018-04-24T20:36:10.601Z,10.00
2018-04-24T20:38:38.962Z,9.37
2018-04-24T20:41:06.368Z,9.47
2018-04-24T20:43:33.884Z,9.27
2018-04-24T20:46:02.146Z,9.40
2018-04-24T20:48:31.294Z,9.83
2018-04-24T20:50:58.796Z,9.37
2018-04-24T20:53:26.379Z,9.37
2018-04-24T20:55:54.537Z,10.00
2018-04-24T20:58:22.805Z,9.57
2018-04-24T21:00:50.394Z,9.60
2018-04-24T21:03:17.825Z,10.20
2018-04-24T21:05:45.336Z,9.33
2018-04-24T21:08:13.018Z,9.37
2018-04-24T21:10:40.508Z,8.47
2018-04-24T21:13:08.068Z,10.50
2018-04-24T21:15:37.049Z,9.40
2018-04-24T21:18:04.706Z,10.30
2018-04-24T21:20:33.693Z,9.63
2018-04-24T21:23:01.211Z,8.90
2018-04-24T21:25:28.712Z,9.63
2018-04-24T21:27:56.196Z,10.80
2018-04-24T21:30:24.475Z,10.43
2018-04-24T21:32:52.751Z,11.40
2018-04-24T21:35:20.240Z,10.30
2018-04-24T21:37:47.733Z,10.60
2018-04-24T21:40:15.564Z,10.43
2018-04-24T21:42:43.099Z,10.40
2018-04-24T21:45:11.353Z,10.00
2018-04-24T21:47:38.899Z,10.13
2018-04-24T21:50:07.176Z,10.40
2018-04-24T21:52:34.640Z,9.67
2018-04-24T21:55:02.143Z,10.43
2018-04-24T21:57:29.611Z,10.90
2018-04-24T21:59:57.090Z,10.80
2018-04-24T22:02:24.568Z,10.40
2018-04-24T22:04:52.053Z,11.00
2018-04-24T22:07:19.559Z,11.07
2018-04-24T22:09:47.055Z,11.30
2018-04-24T22:12:15.571Z,11.60
2018-04-24T22:14:43.047Z,11.10
2018-04-24T22:17:10.531Z,11.50
2018-04-24T22:19:38.020Z,11.80
2018-04-24T22:22:06.273Z,12.00
2018-04-24T22:24:33.755Z,11.47
2018-04-24T22:27:01.227Z,12.17
2018-04-24T22:29:28.764Z,11.73
2018-04-24T22:31:57.010Z,10.47
2018-04-24T22:34:24.491Z,11.10
2018-04-24T22:36:52.731Z,11.43
2018-04-24T22:39:20.230Z,12.20
2018-04-24T22:41:48.464Z,11.40
2018-04-24T22:44:16.079Z,11.80
2018-04-24T22:46:43.580Z,12.17
2018-04-24T22:49:11.043Z,12.30
2018-04-24T22:51:40.032Z,12.40
2018-04-24T22:54:07.513Z,11.50
2018-04-24T22:56:35.006Z,11.47
2018-04-24T22:59:02.471Z,12.20
2018-04-24T23:01:30.180Z,11.50
2018-04-24T23:03:57.689Z,11.87
2018-04-24T23:06:25.171Z,11.13
2018-04-24T23:08:52.780Z,11.60
2018-04-24T23:11:33.006Z,10.60
2018-04-24T23:14:12.996Z,10.00
2018-04-24T23:16:52.400Z,10.30
2018-04-24T23:19:31.820Z,8.97
2018-04-24T23:21:58.819Z,9.40
2018-04-24T23:24:26.312Z,9.67
2018-04-24T23:26:53.777Z,9.07
2018-04-24T23:29:21.252Z,8.30
2018-04-24T23:31:48.715Z,8.07
2018-04-24T23:34:16.237Z,8.07
2018-04-24T23:36:43.711Z,7.67
2018-04-24T23:39:11.188Z,7.03
2018-04-24T23:41:38.734Z,6.40
2018-04-24T23:44:06.919Z,7.67
2018-04-24T23:46:35.169Z,7.20
2018-04-24T23:49:02.757Z,6.77
2018-04-24T23:51:30.233Z,6.83
2018-04-24T23:53:58.469Z,6.43
2018-04-24T23:56:25.956Z,6.47
2018-04-24T23:58:54.192Z,6.30
